sensor_id;sensor_type;location;lat;lon;timestamp;P1;durP1;ratioP1;P2;durP2;ratioP2
7517;SDS011;3800;48.922;9.444;2023-02-10T00:00:30;48.57;;;31.50;;
7517;SDS011;3800;48.922;9.444;2023-02-10T00:02:58;46.67;;;30.30;;
7517;SDS011;3800;48.922;9.444;2023-02-10T00:05:26;45.50;;;29.03;;
7517;SDS011;3800;48.922;9.444;2023-02-10T00:07:53;48.40;;;31.07;;
7517;SDS011;3800;48.922;9.444;2023-02-10T00:10:21;48.97;;;31.17;;
7517;SDS011;3800;48.922;9.444;2023-02-10T00:12:49;43.97;;;29.40;;
7517;SDS011;3800;48.922;9.444;2023-02-10T00:15:16;46.93;;;29.97;;
7517;SDS011;3800;48.922;9.444;2023-02-10T00:17:44;43.63;;;29.00;;
7517;SDS011;3800;48.922;9.444;2023-02-10T00:20:11;44.73;;;30.13;;
7517;SDS011;3800;48.922;9.444;2023-02-10T00:22:39;46.47;;;30.50;;
7517;SDS011;3800;48.922;9.444;2023-02-10T00:25:07;45.87;;;30.30;;
7517;SDS011;3800;48.922;9.444;2023-02-10T00:27:34;43.97;;;28.20;;
7517;SDS011;3800;48.922;9.444;2023-02-10T00:30:02;41.17;;;28.37;;
7517;SDS011;3800;48.922;9.444;2023-02-10T00:32:30;44.80;;;29.30;;
7517;SDS011;3800;48.922;9.444;2023-02-10T00:34:58;47.30;;;30.60;;
7517;SDS011;3800;48.922;9.444;2023-02-10T00:37:26;49.03;;;31.27;;
7517;SDS011;3800;48.922;9.444;2023-02-10T00:39:54;45.07;;;29.60;;
7517;SDS011;3800;48.922;9.444;2023-02-10T00:42:21;48.47;;;31.83;;
7517;SDS011;3800;48.922;9.444;2023-02-10T00:44:49;44.63;;;29.80;;
7517;SDS011;3800;48.922;9.444;2023-02-10T00:47:17;45.67;;;30.60;;
7517;SDS011;3800;48.922;9.444;2023-02-10T00:49:44;41.13;;;29.03;;
7517;SDS011;3800;48.922;9.444;2023-02-10T00:52:12;49.27;;;30.70;;
7517;SDS011;3800;48.922;9.444;2023-02-10T00:54:39;48.33;;;30.97;;
7517;SDS011;3800;48.922;9.444;2023-02-10T00:57:07;44.63;;;29.57;;
7517;SDS011;3800;48.922;9.444;2023-02-10T00:59:35;43.63;;;28.77;;
7517;SDS011;3800;48.922;9.444;2023-02-10T01:02:02;43.77;;;27.73;;
7517;SDS011;3800;48.922;9.444;2023-02-10T01:04:31;46.37;;;29.23;;
7517;SDS011;3800;48.922;9.444;2023-02-10T01:06:58;47.77;;;30.10;;
7517;SDS011;3800;48.922;9.444;2023-02-10T01:09:26;46.30;;;29.23;;
7517;SDS011;3800;48.922;9.444;2023-02-10T01:11:54;45.40;;;29.57;;
7517;SDS011;3800;48.922;9.444;2023-02-10T01:14:21;46.80;;;29.93;;
7517;SDS011;3800;48.922;9.444;2023-02-10T01:16:49;47.37;;;31.27;;
7517;SDS011;3800;48.922;9.444;2023-02-10T01:19:17;42.90;;;28.60;;
7517;SDS011;3800;48.922;9.444;2023-02-10T01:21:44;41.93;;;29.77;;
7517;SDS011;3800;48.922;9.444;2023-02-10T01:24:12;43.43;;;29.50;;
7517;SDS011;3800;48.922;9.444;2023-02-10T01:26:41;43.90;;;28.50;;
7517;SDS011;3800;48.922;9.444;2023-02-10T01:29:08;39.73;;;26.53;;
7517;SDS011;3800;48.922;9.444;2023-02-10T01:31:36;42.50;;;28.40;;
7517;SDS011;3800;48.922;9.444;2023-02-10T01:34:04;40.03;;;26.93;;
7517;SDS011;3800;48.922;9.444;2023-02-10T01:36:32;41.53;;;27.53;;
7517;SDS011;3800;48.922;9.444;2023-02-10T01:38:59;41.37;;;28.13;;
7517;SDS011;3800;48.922;9.444;2023-02-10T01:41:27;43.33;;;27.83;;
7517;SDS011;3800;48.922;9.444;2023-02-10T01:43:57;45.73;;;29.03;;
7517;SDS011;3800;48.922;9.444;2023-02-10T01:46:25;39.57;;;27.37;;
7517;SDS011;3800;48.922;9.444;2023-02-10T01:48:52;42.87;;;26.33;;
7517;SDS011;3800;48.922;9.444;2023-02-10T01:51:21;39.13;;;25.67;;
7517;SDS011;3800;48.922;9.444;2023-02-10T01:53:47;40.27;;;26.53;;
7517;SDS011;3800;48.922;9.444;2023-02-10T01:56:15;42.43;;;26.77;;
7517;SDS011;3800;48.922;9.444;2023-02-10T01:58:43;39.10;;;24.97;;
7517;SDS011;3800;48.922;9.444;2023-02-10T02:01:10;35.23;;;23.33;;
7517;SDS011;3800;48.922;9.444;2023-02-10T02:03:38;36.57;;;23.23;;
7517;SDS011;3800;48.922;9.444;2023-02-10T02:06:06;33.93;;;23.37;;
7517;SDS011;3800;48.922;9.444;2023-02-10T02:08:33;36.80;;;23.67;;
7517;SDS011;3800;48.922;9.444;2023-02-10T02:11:07;35.33;;;23.40;;
7517;SDS011;3800;48.922;9.444;2023-02-10T02:13:47;34.37;;;23.30;;
7517;SDS011;3800;48.922;9.444;2023-02-10T02:16:27;35.97;;;23.07;;
7517;SDS011;3800;48.922;9.444;2023-02-10T02:18:56;36.63;;;23.73;;
7517;SDS011;3800;48.922;9.444;2023-02-10T02:24:15;35.20;;;23.30;;
7517;SDS011;3800;48.922;9.444;2023-02-10T02:26:48;37.90;;;24.33;;
7517;SDS011;3800;48.922;9.444;2023-02-10T02:29:28;36.63;;;23.87;;
7517;SDS011;3800;48.922;9.444;2023-02-10T02:31:57;39.23;;;24.97;;
7517;SDS011;3800;48.922;9.444;2023-02-10T02:34:27;34.07;;;23.10;;
7517;SDS011;3800;48.922;9.444;2023-02-10T02:36:54;38.07;;;23.87;;
7517;SDS011;3800;48.922;9.444;2023-02-10T02:39:23;43.43;;;25.27;;
7517;SDS011;3800;48.922;9.444;2023-02-10T02:44:26;36.63;;;23.20;;
7517;SDS011;3800;48.922;9.444;2023-02-10T02:46:56;34.83;;;22.00;;
7517;SDS011;3800;48.922;9.444;2023-02-10T02:49:29;36.07;;;23.50;;
7517;SDS011;3800;48.922;9.444;2023-02-10T02:52:11;38.73;;;24.50;;
7517;SDS011;3800;48.922;9.444;2023-02-10T02:54:42;41.20;;;24.77;;
7517;SDS011;3800;48.922;9.444;2023-02-10T02:57:17;36.60;;;24.17;;
7517;SDS011;3800;48.922;9.444;2023-02-10T02:59:45;33.93;;;22.37;;
7517;SDS011;3800;48.922;9.444;2023-02-10T03:02:18;33.53;;;23.03;;
7517;SDS011;3800;48.922;9.444;2023-02-10T03:04:48;32.80;;;22.10;;
7517;SDS011;3800;48.922;9.444;2023-02-10T03:07:16;36.83;;;23.30;;
7517;SDS011;3800;48.922;9.444;2023-02-10T03:09:44;37.87;;;24.17;;
7517;SDS011;3800;48.922;9.444;2023-02-10T03:12:11;38.27;;;24.93;;
7517;SDS011;3800;48.922;9.444;2023-02-10T03:14:39;38.70;;;25.07;;
7517;SDS011;3800;48.922;9.444;2023-02-10T03:17:07;45.63;;;25.63;;
7517;SDS011;3800;48.922;9.444;2023-02-10T03:19:35;36.37;;;24.87;;
7517;SDS011;3800;48.922;9.444;2023-02-10T03:22:03;37.93;;;25.37;;
7517;SDS011;3800;48.922;9.444;2023-02-10T03:24:30;39.97;;;27.07;;
7517;SDS011;3800;48.922;9.444;2023-02-10T03:26:58;40.10;;;25.23;;
7517;SDS011;3800;48.922;9.444;2023-02-10T03:29:25;39.07;;;23.93;;
7517;SDS011;3800;48.922;9.444;2023-02-10T03:31:53;39.50;;;25.57;;
7517;SDS011;3800;48.922;9.444;2023-02-10T03:34:21;35.13;;;24.27;;
7517;SDS011;3800;48.922;9.444;2023-02-10T03:36:48;37.90;;;24.60;;
7517;SDS011;3800;48.922;9.444;2023-02-10T03:39:16;35.60;;;24.33;;
7517;SDS011;3800;48.922;9.444;2023-02-10T03:41:44;38.93;;;24.13;;
7517;SDS011;3800;48.922;9.444;2023-02-10T03:44:11;36.87;;;24.50;;
7517;SDS011;3800;48.922;9.444;2023-02-10T03:46:39;36.70;;;23.70;;
7517;SDS011;3800;48.922;9.444;2023-02-10T03:49:07;34.20;;;23.67;;
7517;SDS011;3800;48.922;9.444;2023-02-10T03:51:35;34.80;;;23.73;;
7517;SDS011;3800;48.922;9.444;2023-02-10T03:54:03;34.83;;;23.63;;
7517;SDS011;3800;48.922;9.444;2023-02-10T03:56:31;36.63;;;24.43;;
7517;SDS011;3800;48.922;9.444;2023-02-10T03:59:00;35.37;;;23.53;;
7517;SDS011;3800;48.922;9.444;2023-02-10T04:01:28;37.47;;;24.17;;
7517;SDS011;3800;48.922;9.444;2023-02-10T04:03:55;33.70;;;23.13;;
7517;SDS011;3800;48.922;9.444;2023-02-10T04:06:23;36.80;;;24.50;;
7517;SDS011;3800;48.922;9.444;2023-02-10T04:08:51;33.87;;;22.40;;
7517;SDS011;3800;48.922;9.444;2023-02-10T04:11:18;35.97;;;23.67;;
7517;SDS011;3800;48.922;9.444;2023-02-10T04:13:47;39.27;;;23.27;;
7517;SDS011;3800;48.922;9.444;2023-02-10T04:16:15;35.17;;;23.13;;
7517;SDS011;3800;48.922;9.444;2023-02-10T04:18:42;35.80;;;21.97;;
7517;SDS011;3800;48.922;9.444;2023-02-10T04:21:10;39.03;;;24.37;;
7517;SDS011;3800;48.922;9.444;2023-02-10T04:23:38;35.13;;;23.77;;
7517;SDS011;3800;48.922;9.444;2023-02-10T04:26:05;37.80;;;24.47;;
7517;SDS011;3800;48.922;9.444;2023-02-10T04:28:33;34.97;;;24.10;;
7517;SDS011;3800;48.922;9.444;2023-02-10T04:31:00;37.07;;;22.97;;
7517;SDS011;3800;48.922;9.444;2023-02-10T04:33:28;36.43;;;23.87;;
7517;SDS011;3800;48.922;9.444;2023-02-10T04:35:55;36.83;;;23.07;;
7517;SDS011;3800;48.922;9.444;2023-02-10T04:38:23;35.97;;;24.57;;
7517;SDS011;3800;48.922;9.444;2023-02-10T04:40:51;34.50;;;24.40;;
7517;SDS011;3800;48.922;9.444;2023-02-10T04:43:18;35.30;;;22.43;;
7517;SDS011;3800;48.922;9.444;2023-02-10T04:45:46;34.70;;;22.93;;
7517;SDS011;3800;48.922;9.444;2023-02-10T04:48:14;35.13;;;23.13;;
7517;SDS011;3800;48.922;9.444;2023-02-10T04:50:42;35.17;;;23.07;;
7517;SDS011;3800;48.922;9.444;2023-02-10T04:53:09;35.73;;;23.47;;
7517;SDS011;3800;48.922;9.444;2023-02-10T04:55:37;33.07;;;22.50;;
7517;SDS011;3800;48.922;9.444;2023-02-10T04:58:04;42.83;;;25.83;;
7517;SDS011;3800;48.922;9.444;2023-02-10T05:00:32;39.57;;;24.40;;
7517;SDS011;3800;48.922;9.444;2023-02-10T05:03:00;38.67;;;24.83;;
7517;SDS011;3800;48.922;9.444;2023-02-10T05:05:27;38.47;;;23.47;;
7517;SDS011;3800;48.922;9.444;2023-02-10T05:07:55;38.83;;;24.50;;
7517;SDS011;3800;48.922;9.444;2023-02-10T05:10:23;32.70;;;23.63;;
7517;SDS011;3800;48.922;9.444;2023-02-10T05:12:50;38.73;;;23.70;;
7517;SDS011;3800;48.922;9.444;2023-02-10T05:15:19;35.67;;;23.33;;
7517;SDS011;3800;48.922;9.444;2023-02-10T05:17:46;36.87;;;23.70;;
7517;SDS011;3800;48.922;9.444;2023-02-10T05:20:14;38.07;;;23.77;;
7517;SDS011;3800;48.922;9.444;2023-02-10T05:22:41;34.80;;;23.43;;
7517;SDS011;3800;48.922;9.444;2023-02-10T05:25:09;36.80;;;23.90;;
7517;SDS011;3800;48.922;9.444;2023-02-10T05:27:37;36.50;;;24.37;;
7517;SDS011;3800;48.922;9.444;2023-02-10T05:30:05;41.13;;;24.37;;
7517;SDS011;3800;48.922;9.444;2023-02-10T05:32:33;36.57;;;24.10;;
7517;SDS011;3800;48.922;9.444;2023-02-10T05:35:01;36.67;;;24.20;;
7517;SDS011;3800;48.922;9.444;2023-02-10T05:37:29;36.13;;;23.03;;
7517;SDS011;3800;48.922;9.444;2023-02-10T05:39:57;41.23;;;24.17;;
7517;SDS011;3800;48.922;9.444;2023-02-10T05:42:25;40.97;;;24.80;;
7517;SDS011;3800;48.922;9.444;2023-02-10T05:44:52;37.40;;;23.60;;
7517;SDS011;3800;48.922;9.444;2023-02-10T05:47:20;33.37;;;21.87;;
7517;SDS011;3800;48.922;9.444;2023-02-10T05:49:48;40.27;;;24.07;;
7517;SDS011;3800;48.922;9.444;2023-02-10T05:52:16;41.47;;;24.60;;
7517;SDS011;3800;48.922;9.444;2023-02-10T05:54:44;39.03;;;24.07;;
7517;SDS011;3800;48.922;9.444;2023-02-10T05:57:11;37.80;;;24.07;;
7517;SDS011;3800;48.922;9.444;2023-02-10T05:59:39;38.90;;;24.27;;
7517;SDS011;3800;48.922;9.444;2023-02-10T06:02:07;40.70;;;24.40;;
7517;SDS011;3800;48.922;9.444;2023-02-10T06:04:36;35.57;;;24.63;;
7517;SDS011;3800;48.922;9.444;2023-02-10T06:07:04;34.63;;;24.10;;
7517;SDS011;3800;48.922;9.444;2023-02-10T06:09:32;35.73;;;22.03;;
7517;SDS011;3800;48.922;9.444;2023-02-10T06:12:02;36.37;;;22.53;;
7517;SDS011;3800;48.922;9.444;2023-02-10T06:14:30;33.10;;;21.30;;
7517;SDS011;3800;48.922;9.444;2023-02-10T06:16:58;33.67;;;21.23;;
7517;SDS011;3800;48.922;9.444;2023-02-10T06:19:26;34.10;;;21.53;;
7517;SDS011;3800;48.922;9.444;2023-02-10T06:21:54;36.33;;;22.97;;
7517;SDS011;3800;48.922;9.444;2023-02-10T06:24:22;35.60;;;23.30;;
7517;SDS011;3800;48.922;9.444;2023-02-10T06:26:50;37.90;;;22.90;;
7517;SDS011;3800;48.922;9.444;2023-02-10T06:29:19;37.63;;;23.60;;
7517;SDS011;3800;48.922;9.444;2023-02-10T06:31:47;32.37;;;22.17;;
7517;SDS011;3800;48.922;9.444;2023-02-10T06:34:15;34.43;;;22.97;;
7517;SDS011;3800;48.922;9.444;2023-02-10T06:36:42;38.23;;;23.63;;
7517;SDS011;3800;48.922;9.444;2023-02-10T06:39:11;36.53;;;24.23;;
7517;SDS011;3800;48.922;9.444;2023-02-10T06:41:38;35.20;;;22.57;;
7517;SDS011;3800;48.922;9.444;2023-02-10T06:44:06;29.97;;;23.17;;
7517;SDS011;3800;48.922;9.444;2023-02-10T06:46:34;39.97;;;24.43;;
7517;SDS011;3800;48.922;9.444;2023-02-10T06:49:02;40.40;;;24.00;;
7517;SDS011;3800;48.922;9.444;2023-02-10T06:51:29;39.50;;;23.73;;
7517;SDS011;3800;48.922;9.444;2023-02-10T06:53:57;36.60;;;22.97;;
7517;SDS011;3800;48.922;9.444;2023-02-10T06:56:25;41.87;;;22.73;;
7517;SDS011;3800;48.922;9.444;2023-02-10T06:58:52;37.77;;;23.73;;
7517;SDS011;3800;48.922;9.444;2023-02-10T07:01:22;35.27;;;23.80;;
7517;SDS011;3800;48.922;9.444;2023-02-10T07:03:50;39.90;;;24.17;;
7517;SDS011;3800;48.922;9.444;2023-02-10T07:06:18;39.87;;;23.33;;
7517;SDS011;3800;48.922;9.444;2023-02-10T07:08:47;34.07;;;23.60;;
7517;SDS011;3800;48.922;9.444;2023-02-10T07:11:15;35.87;;;24.27;;
7517;SDS011;3800;48.922;9.444;2023-02-10T07:13:43;36.17;;;23.67;;
7517;SDS011;3800;48.922;9.444;2023-02-10T07:16:11;34.63;;;23.53;;
7517;SDS011;3800;48.922;9.444;2023-02-10T07:18:39;38.10;;;23.73;;
7517;SDS011;3800;48.922;9.444;2023-02-10T07:21:07;36.87;;;24.27;;
7517;SDS011;3800;48.922;9.444;2023-02-10T07:23:34;40.23;;;25.47;;
7517;SDS011;3800;48.922;9.444;2023-02-10T07:26:04;38.33;;;24.63;;
7517;SDS011;3800;48.922;9.444;2023-02-10T07:28:31;40.17;;;24.40;;
7517;SDS011;3800;48.922;9.444;2023-02-10T07:30:59;43.57;;;24.63;;
7517;SDS011;3800;48.922;9.444;2023-02-10T07:33:26;41.87;;;25.57;;
7517;SDS011;3800;48.922;9.444;2023-02-10T07:35:54;42.60;;;24.60;;
7517;SDS011;3800;48.922;9.444;2023-02-10T07:38:22;39.93;;;24.93;;
7517;SDS011;3800;48.922;9.444;2023-02-10T07:40:49;40.80;;;25.27;;
7517;SDS011;3800;48.922;9.444;2023-02-10T07:43:19;37.17;;;24.70;;
7517;SDS011;3800;48.922;9.444;2023-02-10T07:45:47;41.17;;;25.40;;
7517;SDS011;3800;48.922;9.444;2023-02-10T07:48:16;40.07;;;26.07;;
7517;SDS011;3800;48.922;9.444;2023-02-10T07:50:47;47.40;;;26.40;;
7517;SDS011;3800;48.922;9.444;2023-02-10T07:53:16;40.27;;;25.10;;
7517;SDS011;3800;48.922;9.444;2023-02-10T07:55:44;40.20;;;24.87;;
7517;SDS011;3800;48.922;9.444;2023-02-10T07:58:12;42.20;;;27.00;;
7517;SDS011;3800;48.922;9.444;2023-02-10T08:00:40;46.90;;;27.67;;
7517;SDS011;3800;48.922;9.444;2023-02-10T08:03:11;39.90;;;25.97;;
7517;SDS011;3800;48.922;9.444;2023-02-10T08:05:39;37.77;;;25.53;;
7517;SDS011;3800;48.922;9.444;2023-02-10T08:08:06;42.43;;;26.70;;
7517;SDS011;3800;48.922;9.444;2023-02-10T08:10:36;43.17;;;26.83;;
7517;SDS011;3800;48.922;9.444;2023-02-10T08:13:02;40.67;;;25.97;;
7517;SDS011;3800;48.922;9.444;2023-02-10T08:15:31;43.50;;;26.87;;
7517;SDS011;3800;48.922;9.444;2023-02-10T08:17:59;46.17;;;26.90;;
7517;SDS011;3800;48.922;9.444;2023-02-10T08:20:27;40.50;;;25.67;;
7517;SDS011;3800;48.922;9.444;2023-02-10T08:22:56;42.47;;;26.70;;
7517;SDS011;3800;48.922;9.444;2023-02-10T08:25:25;43.53;;;26.90;;
7517;SDS011;3800;48.922;9.444;2023-02-10T08:27:53;42.13;;;28.33;;
7517;SDS011;3800;48.922;9.444;2023-02-10T08:30:20;43.27;;;28.20;;
7517;SDS011;3800;48.922;9.444;2023-02-10T08:32:48;44.67;;;27.93;;
7517;SDS011;3800;48.922;9.444;2023-02-10T08:35:16;42.83;;;27.50;;
7517;SDS011;3800;48.922;9.444;2023-02-10T08:37:44;39.60;;;25.27;;
7517;SDS011;3800;48.922;9.444;2023-02-10T08:40:12;42.33;;;27.13;;
7517;SDS011;3800;48.922;9.444;2023-02-10T08:42:40;45.93;;;28.63;;
7517;SDS011;3800;48.922;9.444;2023-02-10T08:45:08;42.13;;;26.73;;
7517;SDS011;3800;48.922;9.444;2023-02-10T08:47:37;48.60;;;28.67;;
7517;SDS011;3800;48.922;9.444;2023-02-10T08:50:06;43.13;;;26.93;;
7517;SDS011;3800;48.922;9.444;2023-02-10T08:52:34;42.50;;;27.30;;
7517;SDS011;3800;48.922;9.444;2023-02-10T08:55:02;45.23;;;28.63;;
7517;SDS011;3800;48.922;9.444;2023-02-10T08:57:31;41.63;;;27.97;;
7517;SDS011;3800;48.922;9.444;2023-02-10T09:00:00;44.13;;;29.20;;
7517;SDS011;3800;48.922;9.444;2023-02-10T09:02:27;43.07;;;29.20;;
7517;SDS011;3800;48.922;9.444;2023-02-10T09:04:55;44.07;;;28.50;;
7517;SDS011;3800;48.922;9.444;2023-02-10T09:07:23;44.73;;;29.47;;
7517;SDS011;3800;48.922;9.444;2023-02-10T09:09:51;47.17;;;29.53;;
7517;SDS011;3800;48.922;9.444;2023-02-10T09:12:19;47.73;;;31.70;;
7517;SDS011;3800;48.922;9.444;2023-02-10T09:14:47;49.97;;;31.30;;
7517;SDS011;3800;48.922;9.444;2023-02-10T09:17:14;47.50;;;29.77;;
7517;SDS011;3800;48.922;9.444;2023-02-10T09:19:42;52.60;;;30.93;;
7517;SDS011;3800;48.922;9.444;2023-02-10T09:22:10;49.57;;;31.50;;
7517;SDS011;3800;48.922;9.444;2023-02-10T09:24:39;46.97;;;30.33;;
7517;SDS011;3800;48.922;9.444;2023-02-10T09:27:07;48.50;;;30.40;;
7517;SDS011;3800;48.922;9.444;2023-02-10T09:29:35;46.10;;;32.00;;
7517;SDS011;3800;48.922;9.444;2023-02-10T09:32:03;52.93;;;32.07;;
7517;SDS011;3800;48.922;9.444;2023-02-10T09:34:34;44.50;;;30.93;;
7517;SDS011;3800;48.922;9.444;2023-02-10T09:37:03;46.97;;;30.53;;
7517;SDS011;3800;48.922;9.444;2023-02-10T09:39:31;47.57;;;31.03;;
7517;SDS011;3800;48.922;9.444;2023-02-10T09:44:36;48.70;;;30.87;;
7517;SDS011;3800;48.922;9.444;2023-02-10T09:47:14;53.77;;;30.70;;
7517;SDS011;3800;48.922;9.444;2023-02-10T09:50:03;50.30;;;31.20;;
7517;SDS011;3800;48.922;9.444;2023-02-10T09:52:58;47.40;;;30.03;;
7517;SDS011;3800;48.922;9.444;2023-02-10T09:55:30;44.10;;;28.57;;
7517;SDS011;3800;48.922;9.444;2023-02-10T09:57:59;45.93;;;29.07;;
7517;SDS011;3800;48.922;9.444;2023-02-10T10:00:29;47.63;;;30.70;;
7517;SDS011;3800;48.922;9.444;2023-02-10T10:02:57;50.20;;;34.07;;
7517;SDS011;3800;48.922;9.444;2023-02-10T10:08:11;47.20;;;32.30;;
7517;SDS011;3800;48.922;9.444;2023-02-10T10:10:44;50.33;;;32.73;;
7517;SDS011;3800;48.922;9.444;2023-02-10T10:13:14;49.67;;;32.43;;
7517;SDS011;3800;48.922;9.444;2023-02-10T10:15:47;48.87;;;31.40;;
7517;SDS011;3800;48.922;9.444;2023-02-10T10:18:15;42.50;;;31.30;;
7517;SDS011;3800;48.922;9.444;2023-02-10T10:20:50;51.63;;;31.93;;
7517;SDS011;3800;48.922;9.444;2023-02-10T10:23:24;42.67;;;30.00;;
7517;SDS011;3800;48.922;9.444;2023-02-10T10:28:54;44.20;;;31.17;;
7517;SDS011;3800;48.922;9.444;2023-02-10T10:31:26;47.27;;;31.37;;
7517;SDS011;3800;48.922;9.444;2023-02-10T10:33:56;44.43;;;29.53;;
7517;SDS011;3800;48.922;9.444;2023-02-10T10:36:32;40.83;;;27.30;;
7517;SDS011;3800;48.922;9.444;2023-02-10T10:39:00;45.13;;;30.67;;
7517;SDS011;3800;48.922;9.444;2023-02-10T10:41:27;42.57;;;28.50;;
7517;SDS011;3800;48.922;9.444;2023-02-10T10:43:55;38.73;;;25.67;;
7517;SDS011;3800;48.922;9.444;2023-02-10T10:47:31;38.70;;;26.60;;
7517;SDS011;3800;48.922;9.444;2023-02-10T10:49:06;39.73;;;25.90;;
7517;SDS011;3800;48.922;9.444;2023-02-10T10:51:35;36.07;;;25.23;;
7517;SDS011;3800;48.922;9.444;2023-02-10T10:54:05;36.10;;;24.57;;
7517;SDS011;3800;48.922;9.444;2023-02-10T10:56:34;38.47;;;26.50;;
7517;SDS011;3800;48.922;9.444;2023-02-10T10:59:20;35.67;;;24.70;;
7517;SDS011;3800;48.922;9.444;2023-02-10T11:01:46;37.83;;;24.47;;
7517;SDS011;3800;48.922;9.444;2023-02-10T11:04:15;33.80;;;23.77;;
7517;SDS011;3800;48.922;9.444;2023-02-10T11:06:46;31.33;;;23.40;;
7517;SDS011;3800;48.922;9.444;2023-02-10T11:09:29;30.53;;;22.63;;
7517;SDS011;3800;48.922;9.444;2023-02-10T11:12:00;29.67;;;21.27;;
7517;SDS011;3800;48.922;9.444;2023-02-10T11:14:29;26.47;;;20.77;;
7517;SDS011;3800;48.922;9.444;2023-02-10T11:16:57;31.83;;;21.83;;
7517;SDS011;3800;48.922;9.444;2023-02-10T11:19:25;31.07;;;21.80;;
7517;SDS011;3800;48.922;9.444;2023-02-10T11:21:52;28.40;;;19.90;;
7517;SDS011;3800;48.922;9.444;2023-02-10T11:24:21;28.60;;;19.17;;
7517;SDS011;3800;48.922;9.444;2023-02-10T11:26:55;26.87;;;18.70;;
7517;SDS011;3800;48.922;9.444;2023-02-10T11:29:23;25.93;;;17.83;;
7517;SDS011;3800;48.922;9.444;2023-02-10T11:31:51;23.63;;;17.33;;
7517;SDS011;3800;48.922;9.444;2023-02-10T11:34:22;26.73;;;18.03;;
7517;SDS011;3800;48.922;9.444;2023-02-10T11:36:49;25.00;;;17.17;;
7517;SDS011;3800;48.922;9.444;2023-02-10T11:39:19;28.37;;;18.10;;
7517;SDS011;3800;48.922;9.444;2023-02-10T11:41:47;25.13;;;17.17;;
7517;SDS011;3800;48.922;9.444;2023-02-10T11:44:31;27.80;;;18.37;;
7517;SDS011;3800;48.922;9.444;2023-02-10T11:47:00;26.27;;;18.73;;
7517;SDS011;3800;48.922;9.444;2023-02-10T11:49:28;27.17;;;18.50;;
7517;SDS011;3800;48.922;9.444;2023-02-10T11:51:58;26.07;;;18.53;;
7517;SDS011;3800;48.922;9.444;2023-02-10T11:54:25;28.53;;;19.70;;
7517;SDS011;3800;48.922;9.444;2023-02-10T11:59:41;31.97;;;21.93;;
7517;SDS011;3800;48.922;9.444;2023-02-10T12:02:25;27.73;;;18.97;;
7517;SDS011;3800;48.922;9.444;2023-02-10T12:05:08;25.70;;;18.17;;
7517;SDS011;3800;48.922;9.444;2023-02-10T12:07:51;23.30;;;17.60;;
7517;SDS011;3800;48.922;9.444;2023-02-10T12:10:23;24.57;;;17.23;;
7517;SDS011;3800;48.922;9.444;2023-02-10T12:12:56;23.03;;;17.53;;
7517;SDS011;3800;48.922;9.444;2023-02-10T12:21:01;22.80;;;16.13;;
7517;SDS011;3800;48.922;9.444;2023-02-10T12:23:35;23.93;;;17.20;;
7517;SDS011;3800;48.922;9.444;2023-02-10T12:26:06;21.73;;;16.07;;
7517;SDS011;3800;48.922;9.444;2023-02-10T12:31:51;28.50;;;17.97;;
7517;SDS011;3800;48.922;9.444;2023-02-10T12:34:08;21.20;;;16.47;;
7517;SDS011;3800;48.922;9.444;2023-02-10T12:37:02;23.40;;;16.37;;
7517;SDS011;3800;48.922;9.444;2023-02-10T12:39:51;23.63;;;16.93;;
7517;SDS011;3800;48.922;9.444;2023-02-10T12:45:17;22.27;;;16.23;;
7517;SDS011;3800;48.922;9.444;2023-02-10T12:47:56;21.83;;;16.13;;
7517;SDS011;3800;48.922;9.444;2023-02-10T12:50:30;22.57;;;15.67;;
7517;SDS011;3800;48.922;9.444;2023-02-10T12:53:00;20.83;;;15.23;;
7517;SDS011;3800;48.922;9.444;2023-02-10T12:55:32;20.83;;;15.20;;
7517;SDS011;3800;48.922;9.444;2023-02-10T12:57:58;20.47;;;14.80;;
7517;SDS011;3800;48.922;9.444;2023-02-10T13:00:31;24.47;;;16.67;;
7517;SDS011;3800;48.922;9.444;2023-02-10T13:02:59;21.40;;;15.47;;
7517;SDS011;3800;48.922;9.444;2023-02-10T13:05:35;23.30;;;16.03;;
7517;SDS011;3800;48.922;9.444;2023-02-10T13:08:05;21.57;;;15.20;;
7517;SDS011;3800;48.922;9.444;2023-02-10T13:10:38;22.33;;;15.97;;
7517;SDS011;3800;48.922;9.444;2023-02-10T13:13:13;22.00;;;16.20;;
7517;SDS011;3800;48.922;9.444;2023-02-10T13:15:40;22.63;;;15.70;;
7517;SDS011;3800;48.922;9.444;2023-02-10T13:18:14;23.80;;;15.70;;
7517;SDS011;3800;48.922;9.444;2023-02-10T13:20:42;20.87;;;15.33;;
7517;SDS011;3800;48.922;9.444;2023-02-10T13:23:15;23.90;;;16.67;;
7517;SDS011;3800;48.922;9.444;2023-02-10T13:25:45;23.77;;;16.87;;
7517;SDS011;3800;48.922;9.444;2023-02-10T13:28:20;22.17;;;16.43;;
7517;SDS011;3800;48.922;9.444;2023-02-10T13:30:50;23.70;;;16.70;;
7517;SDS011;3800;48.922;9.444;2023-02-10T13:33:23;22.23;;;16.87;;
7517;SDS011;3800;48.922;9.444;2023-02-10T13:35:50;21.87;;;15.47;;
7517;SDS011;3800;48.922;9.444;2023-02-10T13:38:19;22.43;;;16.07;;
7517;SDS011;3800;48.922;9.444;2023-02-10T13:40:49;22.60;;;16.87;;
7517;SDS011;3800;48.922;9.444;2023-02-10T13:43:24;23.70;;;16.00;;
7517;SDS011;3800;48.922;9.444;2023-02-10T13:45:53;22.27;;;16.30;;
7517;SDS011;3800;48.922;9.444;2023-02-10T13:48:21;23.83;;;17.60;;
7517;SDS011;3800;48.922;9.444;2023-02-10T13:50:52;25.93;;;17.47;;
7517;SDS011;3800;48.922;9.444;2023-02-10T13:56:04;25.33;;;17.30;;
7517;SDS011;3800;48.922;9.444;2023-02-10T14:06:54;24.60;;;17.60;;
7517;SDS011;3800;48.922;9.444;2023-02-10T14:12:22;23.50;;;16.10;;
7517;SDS011;3800;48.922;9.444;2023-02-10T14:14:35;21.57;;;16.57;;
7517;SDS011;3800;48.922;9.444;2023-02-10T14:17:06;26.70;;;16.90;;
7517;SDS011;3800;48.922;9.444;2023-02-10T14:19:48;22.47;;;15.97;;
7517;SDS011;3800;48.922;9.444;2023-02-10T14:24:53;18.93;;;15.43;;
7517;SDS011;3800;48.922;9.444;2023-02-10T14:27:21;26.67;;;16.40;;
7517;SDS011;3800;48.922;9.444;2023-02-10T14:29:51;22.00;;;16.50;;
7517;SDS011;3800;48.922;9.444;2023-02-10T14:32:20;20.73;;;16.10;;
7517;SDS011;3800;48.922;9.444;2023-02-10T14:34:55;22.67;;;16.37;;
7517;SDS011;3800;48.922;9.444;2023-02-10T14:37:21;21.33;;;15.97;;
7517;SDS011;3800;48.922;9.444;2023-02-10T14:39:50;24.67;;;16.53;;
7517;SDS011;3800;48.922;9.444;2023-02-10T14:42:21;21.63;;;16.73;;
7517;SDS011;3800;48.922;9.444;2023-02-10T14:44:49;22.13;;;16.43;;
7517;SDS011;3800;48.922;9.444;2023-02-10T14:47:16;24.77;;;16.13;;
7517;SDS011;3800;48.922;9.444;2023-02-10T14:49:47;18.90;;;14.73;;
7517;SDS011;3800;48.922;9.444;2023-02-10T14:54:47;24.70;;;15.77;;
7517;SDS011;3800;48.922;9.444;2023-02-10T14:57:15;22.17;;;16.03;;
7517;SDS011;3800;48.922;9.444;2023-02-10T14:59:43;22.93;;;15.77;;
7517;SDS011;3800;48.922;9.444;2023-02-10T15:02:18;25.17;;;17.03;;
7517;SDS011;3800;48.922;9.444;2023-02-10T15:04:48;21.43;;;15.43;;
7517;SDS011;3800;48.922;9.444;2023-02-10T15:07:18;22.30;;;16.63;;
7517;SDS011;3800;48.922;9.444;2023-02-10T15:09:45;22.10;;;15.80;;
7517;SDS011;3800;48.922;9.444;2023-02-10T15:12:14;23.47;;;17.33;;
7517;SDS011;3800;48.922;9.444;2023-02-10T15:15:17;25.23;;;17.53;;
7517;SDS011;3800;48.922;9.444;2023-02-10T15:17:26;21.67;;;16.27;;
7517;SDS011;3800;48.922;9.444;2023-02-10T15:19:56;25.13;;;17.33;;
7517;SDS011;3800;48.922;9.444;2023-02-10T15:25:27;24.20;;;17.30;;
7517;SDS011;3800;48.922;9.444;2023-02-10T15:27:25;23.73;;;16.20;;
7517;SDS011;3800;48.922;9.444;2023-02-10T15:29:54;23.27;;;16.30;;
7517;SDS011;3800;48.922;9.444;2023-02-10T15:32:21;22.43;;;16.87;;
7517;SDS011;3800;48.922;9.444;2023-02-10T15:34:49;23.90;;;16.30;;
7517;SDS011;3800;48.922;9.444;2023-02-10T15:37:19;22.60;;;16.53;;
7517;SDS011;3800;48.922;9.444;2023-02-10T15:42:27;24.57;;;17.10;;
7517;SDS011;3800;48.922;9.444;2023-02-10T15:45:02;22.80;;;16.33;;
7517;SDS011;3800;48.922;9.444;2023-02-10T15:47:46;26.57;;;16.70;;
7517;SDS011;3800;48.922;9.444;2023-02-10T15:50:12;22.23;;;16.03;;
7517;SDS011;3800;48.922;9.444;2023-02-10T15:52:41;23.83;;;16.87;;